Latest Weather Observations for Norfolk Island

IDN60801

Issued at 10:12 am EST Monday 16 September 2019 (issued every 10 minutes, with the page automatically refreshed every 10 minutes)

About weather observations | Map of weather stations | Latest weather observations for NSW | Other Formats
Station Details ID: 200288 Name: NORFOLK ISLAND AERO Lat: -29.04 Lon: 167.94 Height: 111.73 m
Data from the previous 72 hours. | See also: Recent months at Norfolk Island

Observations are collected in the New South Wales time zone (Eastern Standard Time) which includes daylight savings in the summer period. Therefore 'Rain since 9am' totals and other values are based on the New South Wales time zone, which may differ from local time.

Date/Time
EST
Temp
°C
App
Temp
°C
Dew
Point
°C
Rel
Hum
%
Delta-T
°C
Wind Press
QNH
hPa
Press
MSL
hPa
Rain since
9am
mm
Dir  Spd
km/h
Gust
km/h
Spd
kts
Gust
kts
16/10:00am 17.9 15.8 11.0 64 3.7 S 13 19 7 10 1023.7 1023.5 0.0
16/09:30am 17.6 14.9 10.5 63 3.8 SSW 15 20 8 11 1024.0 1023.8 0.0
16/09:00am 17.7 14.9 10.1 61 4.0 SSW 15 20 8 11 1024.1 1023.9 0.0
16/08:30am 18.1 15.4 10.2 60 4.2 SSW 15 24 8 13 1024.2 1024.0 0.0
16/08:00am 17.9 15.3 9.5 58 4.4 SSW 13 19 7 10 1024.0 1023.8 0.0
16/07:30am 17.4 14.4 9.3 59 4.2 S 15 20 8 11 1023.8 1023.6 0.0
16/07:00am 16.8 14.1 8.8 59 4.1 SSW 13 19 7 10 1023.5 1023.3 0.0
16/06:30am 17.0 14.8 9.2 60 4.1 S 11 15 6 8 1023.1 1022.9 0.0
16/06:00am 16.0 13.4 9.2 64 3.5 S 13 19 7 10 1022.9 1022.7 0.0
16/05:30am 15.9 12.5 9.1 64 3.5 SSW 17 22 9 12 1022.7 1022.5 0.0
16/05:00am 15.6 13.2 9.9 69 3.0 SSW 13 17 7 9 1022.3 1022.2 0.0
16/04:30am 15.3 12.3 9.4 68 3.1 SSW 15 19 8 10 1021.9 1021.8 0.0
16/04:00am 15.4 12.0 10.6 73 2.5 SSW 19 28 10 15 1021.5 1021.4 0.0
16/03:30am 15.5 12.3 10.1 70 2.8 SSW 17 22 9 12 1021.2 1021.1 0.0
16/03:00am 15.4 11.9 8.9 65 3.3 SSW 17 26 9 14 1021.0 1020.9 0.0
16/02:30am 15.5 11.8 9.6 68 3.1 SSW 19 28 10 15 1020.7 1020.6 0.0
16/02:00am 15.4 11.2 9.7 69 3.0 SSW 22 32 12 17 1020.5 1020.3 0.0
16/01:30am 15.6 11.8 9.9 69 3.0 SSW 20 30 11 16 1020.4 1020.2 0.0
16/01:00am 15.5 12.0 10.1 70 2.8 SSW 19 28 10 15 1020.3 1020.1 0.0
16/12:30am 15.7 11.2 10.2 70 2.9 SSW 24 33 13 18 1020.3 1020.1 0.0
16/12:00am 15.7 12.8 11.1 74 2.5 SSW 17 24 9 13 1020.4 1020.2 0.0
 
Date/Time
EST
Temp
°C
App
Temp
°C
Dew
Point
°C
Rel
Hum
%
Delta-T
°C
Wind Press
QNH
hPa
Press
MSL
hPa
Rain since
9am
mm
Dir  Spd
km/h
Gust
km/h
Spd
kts
Gust
kts
15/11:30pm 15.7 12.5 11.3 75 2.4 SSW 19 28 10 15 1020.3 1020.1 0.0
15/11:00pm 15.4 11.7 11.4 77 2.2 SSW 22 30 12 16 1020.2 1020.0 0.0
15/10:30pm 15.9 10.5 10.9 72 2.7 SW 30 39 16 21 1020.1 1019.9 0.0
15/10:00pm 15.9 11.6 10.9 72 2.7 SW 24 41 13 22 1020.0 1019.8 0.0
15/09:30pm 16.0 11.4 11.0 72 2.7 SW 26 39 14 21 1019.9 1019.7 0.0
15/09:00pm 15.9 11.2 10.7 71 2.8 SW 26 41 14 22 1019.7 1019.5 0.0
15/08:30pm 16.2 10.7 10.5 69 3.0 SW 30 44 16 24 1019.7 1019.5 0.0
15/08:00pm 16.1 10.5 10.2 68 3.1 WSW 30 39 16 21 1019.7 1019.5 0.0
15/07:30pm 16.2 10.4 9.6 65 3.5 WSW 30 41 16 22 1019.5 1019.3 0.0
15/07:00pm 16.2 9.7 8.9 62 3.8 WSW 33 46 18 25 1019.3 1019.1 0.0
15/06:30pm 16.4 10.3 9.8 65 3.5 SW 32 41 17 22 1019.0 1018.8 0.0
15/06:00pm 16.3 10.1 9.3 63 3.6 WSW 32 48 17 26 1018.6 1018.4 0.0
15/05:30pm 16.4 10.7 9.8 65 3.5 WSW 30 39 16 21 1018.2 1018.0 0.0
15/05:00pm 15.9 10.5 9.6 66 3.3 WSW 28 39 15 21 1017.8 1017.6 0.0
15/04:30pm 16.5 10.3 9.4 63 3.7 WSW 32 43 17 23 1017.3 1017.1 0.0
15/04:00pm 16.9 10.9 8.8 59 4.2 WSW 30 39 16 21 1017.1 1016.9 0.0
15/03:31pm 17.2 11.6 8.6 57 4.4 WSW 28 46 15 25 1016.8 1016.6 0.0
15/03:30pm 17.3 11.7 8.7 57 4.5 WSW 28 37 15 20 1016.8 1016.6 0.0
15/03:00pm 17.8 11.9 8.9 56 4.6 WSW 30 41 16 22 1016.6 1016.4 0.0
15/02:30pm 17.7 11.7 8.8 56 4.6 WSW 30 46 16 25 1016.3 1016.1 0.0
15/02:00pm 17.9 11.8 8.2 53 5.0 WSW 30 39 16 21 1016.3 1016.1 0.0
15/01:36pm 17.9 11.9 8.5 54 4.9 WSW 30 48 16 26 1016.4 1016.2 0.0
15/01:30pm 18.1 12.0 9.7 58 4.5 WSW 32 46 17 25 1016.4 1016.2 0.0
15/01:00pm 17.3 10.1 7.6 53 4.9 WSW 35 50 19 27 1016.5 1016.3 0.0
15/12:30pm 17.9 11.5 9.3 57 4.5 WSW 33 41 18 22 1016.8 1016.6 0.0
15/12:00pm 18.4 12.5 10.3 59 4.3 WSW 32 41 17 22 1017.0 1016.8 0.0
15/11:30am 17.8 12.0 10.7 63 3.8 W 32 41 17 22 1017.2 1017.0 0.0
15/11:00am 18.8 13.5 11.1 61 4.2 W 30 37 16 20 1017.3 1017.1 0.0
15/10:30am 17.9 12.2 11.0 64 3.7 W 32 43 17 23 1017.6 1017.4 0.0
15/10:00am 18.2 13.4 11.5 65 3.7 W 28 37 15 20 1017.7 1017.5 0.0
15/09:30am 17.9 13.7 12.4 70 3.1 W 26 33 14 18 1018.1 1017.9 0.0
15/09:00am 17.8 13.6 12.3 70 3.1 W 26 35 14 19 1018.2 1018.0 0.0
15/08:30am 17.6 14.2 12.5 72 2.8 WSW 22 30 12 16 1018.2 1018.0 0.0
15/08:00am 17.0 14.4 11.9 72 2.8 W 17 24 9 13 1017.9 1017.7 1.8
15/07:30am 16.9 13.9 12.0 73 2.7 WSW 19 28 10 15 1018.1 1017.9 1.8
15/07:00am 16.3 13.5 11.5 73 2.6 SW 17 24 9 13 1018.1 1017.9 1.8
15/06:30am 15.6 12.8 11.4 76 2.3 SW 17 26 9 14 1017.9 1017.7 1.8
15/06:06am 15.0 12.2 11.4 79 1.9 SSW 17 22 9 12 1017.9 1017.7 1.8
15/06:00am 14.7 11.6 11.5 81 1.7 SSW 19 28 10 15 1017.9 1017.7 1.8
15/05:30am 14.2 10.7 12.1 87 1.1 SSW 22 33 12 18 1017.5 1017.3 1.8
15/05:15am 14.2 11.3 12.2 88 1.1 SSW 19 33 10 18 1017.4 1017.2 1.8
15/05:00am 13.9 10.8 12.3 90 0.9 SSW 20 33 11 18 1017.2 1017.0 1.8
15/04:56am 13.7 10.6 12.1 90 0.9 SSW 20 33 11 18 1017.1 1016.9 1.8
15/04:37am 13.3 7.8 10.7 84 1.4 WSW 30 44 16 24 1016.8 1016.6 1.0
15/04:30am 16.3 11.6 11.9 75 2.4 W 28 41 15 22 1016.7 1016.5 0.4
15/04:00am 16.8 11.8 11.1 69 3.1 WNW 28 37 15 20 1016.1 1015.9 0.4
15/03:30am 16.9 12.0 11.2 69 3.1 WNW 28 35 15 19 1016.3 1016.1 0.4
15/03:00am 16.6 12.7 10.9 69 3.1 WNW 22 35 12 19 1016.3 1016.1 0.4
15/02:30am 16.3 13.0 11.7 74 2.5 WNW 20 28 11 15 1016.0 1015.8 0.4
15/02:00am 16.1 12.8 11.7 75 2.4 WNW 20 30 11 16 1016.3 1016.1 0.4
15/01:30am 16.2 12.9 11.6 74 2.5 WNW 20 30 11 16 1016.5 1016.3 0.4
15/01:00am 16.3 12.9 11.2 72 2.8 WNW 20 30 11 16 1016.7 1016.5 0.4
15/12:30am 16.2 13.0 11.4 73 2.6 W 19 26 10 14 1017.1 1016.9 0.4
15/12:00am 15.9 13.8 11.3 74 2.5 WNW 13 19 7 10 1017.3 1017.1 0.4
 
Date/Time
EST
Temp
°C
App
Temp
°C
Dew
Point
°C
Rel
Hum
%
Delta-T
°C
Wind Press
QNH
hPa
Press
MSL
hPa
Rain since
9am
mm
Dir  Spd
km/h
Gust
km/h
Spd
kts
Gust
kts
14/11:30pm 15.8 13.7 11.2 74 2.5 W 13 17 7 9 1017.5 1017.3 0.4
14/11:00pm 15.6 13.1 11.2 75 2.4 W 15 20 8 11 1017.8 1017.6 0.4
14/10:30pm 15.8 13.8 11.6 76 2.3 W 13 17 7 9 1017.8 1017.6 0.4
14/10:00pm 15.9 14.2 12.3 79 2.0 WSW 13 17 7 9 1018.0 1017.8 0.4
14/09:30pm 15.4 14.4 12.3 82 1.7 WSW 9 11 5 6 1018.1 1017.9 0.4
14/09:00pm 15.9 14.2 12.6 81 1.8 WSW 13 17 7 9 1017.9 1017.7 0.4
14/08:30pm 15.8 14.6 12.9 83 1.6 WSW 11 15 6 8 1018.2 1018.0 0.4
14/08:00pm 16.1 14.7 13.4 84 1.5 SW 13 19 7 10 1018.2 1018.0 0.4
14/07:30pm 16.2 15.0 13.9 86 1.3 SW 13 19 7 10 1018.1 1017.9 0.4
14/07:00pm 17.1 14.5 13.2 78 2.2 W 19 28 10 15 1018.0 1017.8 0.4
14/06:30pm 17.1 14.8 13.0 77 2.3 W 17 26 9 14 1017.9 1017.7 0.4
14/06:00pm 17.0 14.0 11.9 72 2.8 W 19 26 10 14 1017.5 1017.3 0.4
14/05:30pm 17.2 14.2 12.7 75 2.5 W 20 33 11 18 1017.3 1017.1 0.4
14/05:00pm 17.4 13.6 12.5 73 2.7 W 24 35 13 19 1017.1 1016.9 0.4
14/04:30pm 17.3 14.6 12.8 75 2.5 W 19 30 10 16 1016.9 1016.7 0.4
14/04:00pm 17.2 13.7 12.3 73 2.7 W 22 32 12 17 1016.6 1016.4 0.4
14/03:30pm 17.7 13.7 13.0 74 2.6 W 26 43 14 23 1016.5 1016.3 0.4
14/03:00pm 18.4 13.4 12.2 67 3.4 W 30 37 16 20 1016.4 1016.2 0.4
14/02:30pm 18.7 14.8 12.0 65 3.7 W 24 35 13 19 1016.6 1016.4 0.4
14/02:00pm 18.3 13.8 12.5 69 3.2 W 28 39 15 21 1016.6 1016.4 0.4
14/01:30pm 18.4 16.4 14.9 80 2.0 W 19 28 10 15 1016.9 1016.7 0.4
14/01:00pm 17.9 14.4 13.4 75 2.6 WNW 24 39 13 21 1017.1 1016.9 0.4
14/12:30pm 18.3 14.6 12.7 70 3.1 WNW 24 33 13 18 1017.1 1016.9 0.4
14/12:00pm 16.9 15.1 13.2 79 2.1 NW 15 22 8 12 1017.6 1017.4 0.0
14/11:51am 16.4 14.3 13.5 83 1.6 NW 17 24 9 13 1017.7 1017.5 0.0
14/11:30am 14.8 9.3 12.3 85 1.4 W 33 52 18 28 1018.2 1018.0 0.0
14/11:27am 15.1 9.6 12.4 84 1.5 W 33 52 18 28 1018.1 1017.9 0.0
14/11:23am 16.2 10.9 12.4 78 2.1 W 32 52 17 28 1017.9 1017.7 0.0
14/11:00am 19.3 15.2 11.3 60 4.4 WNW 24 37 13 20 1017.9 1017.7 0.0
14/10:30am 19.1 15.0 11.4 61 4.2 WNW 24 33 13 18 1018.2 1018.0 0.0
14/10:00am 19.0 14.0 11.1 60 4.3 WNW 28 35 15 19 1018.3 1018.1 0.0
14/09:30am 18.5 14.1 10.3 59 4.4 WNW 24 37 13 20 1018.5 1018.3 0.0
14/09:00am 18.7 14.8 10.8 60 4.3 WNW 22 30 12 16 1018.7 1018.5 0.0
14/08:30am 18.0 13.7 10.6 62 4.0 WNW 24 35 13 19 1018.8 1018.6 0.0
14/08:00am 17.5 13.0 10.1 62 3.9 WNW 24 33 13 18 1018.9 1018.7 0.0
14/07:30am 17.6 14.0 10.5 63 3.8 WNW 20 28 11 15 1019.0 1018.8 0.0
14/07:00am 17.0 13.0 9.2 60 4.1 WNW 20 32 11 17 1019.1 1018.9 0.0
14/06:30am 17.0 13.4 9.9 63 3.8 WNW 19 26 10 14 1019.0 1018.8 0.0
14/06:00am 16.3 12.4 9.3 63 3.6 WNW 20 30 11 16 1019.0 1018.8 0.0
14/05:30am 15.8 12.0 9.7 67 3.2 W 20 30 11 16 1018.9 1018.7 0.0
14/05:00am 15.3 11.7 9.9 70 2.8 WNW 19 30 10 16 1018.8 1018.6 0.0
14/04:30am 15.4 12.2 10.0 70 2.8 WNW 17 26 9 14 1018.5 1018.3 0.0
14/04:00am 15.1 12.4 10.3 73 2.5 NW 15 22 8 12 1018.3 1018.1 0.0
14/03:30am 15.0 11.8 9.8 71 2.7 WNW 17 26 9 14 1018.2 1018.0 0.0
14/03:00am 14.4 12.0 10.2 76 2.2 NW 13 19 7 10 1018.2 1018.0 0.0
14/02:30am 13.9 12.4 10.5 80 1.8 NW 9 19 5 10 1018.2 1018.0 0.0
14/02:00am 13.1 12.2 11.2 88 1.0 NW 7 17 4 9 1018.5 1018.3 0.0
14/01:30am 13.6 12.4 11.5 87 1.1 NW 9 13 5 7 1018.8 1018.6 0.0
14/01:14am 13.7 10.9 11.4 86 1.2 W 17 26 9 14 1019.1 1018.9 0.0
14/01:02am 13.5 9.0 11.4 87 1.1 W 26 35 14 19 1019.3 1019.1 0.0
14/01:00am 13.4 8.9 11.5 88 1.0 W 26 35 14 19 1019.4 1019.2 0.0
14/12:58am 13.4 8.6 11.5 88 1.0 W 28 35 15 19 1019.4 1019.2 0.0
14/12:30am 13.5 12.4 10.5 82 1.6 N 7 11 4 6 1019.6 1019.4 0.0
14/12:00am 13.1 11.8 10.1 82 1.6 N 7 9 4 5 1019.7 1019.5 0.0
 
Date/Time
EST
Temp
°C
App
Temp
°C
Dew
Point
°C
Rel
Hum
%
Delta-T
°C
Wind Press
QNH
hPa
Press
MSL
hPa
Rain since
9am
mm
Dir  Spd
km/h
Gust
km/h
Spd
kts
Gust
kts
13/11:30pm 13.2 11.4 9.6 79 1.8 N 9 11 5 6 1019.9 1019.7 0.0
13/11:00pm 13.3 11.5 9.5 78 1.9 NNE 9 11 5 6 1020.2 1020.0 0.0
13/10:30pm 14.0 12.2 9.6 75 2.3 NNE 9 13 5 7 1020.3 1020.1 0.0
13/10:00pm 13.7 12.4 9.9 78 2.0 NE 7 9 4 5 1020.5 1020.3 0.0
13/09:30pm 13.7 12.3 9.7 77 2.1 NE 7 9 4 5 1020.6 1020.5 0.0
13/09:00pm 12.8 11.5 9.3 79 1.8 NNE 6 9 3 5 1020.8 1020.7 0.0
13/08:30pm 12.1 11.8 8.6 79 1.7 CALM 0 2 0 1 1020.9 1020.8 0.0
13/08:00pm 13.0 10.9 8.3 73 2.3 NNE 9 9 5 5 1020.9 1020.8 0.0
13/07:30pm 12.6 10.6 8.7 77 2.0 NNE 9 11 5 6 1020.9 1020.8 0.0
13/07:00pm 13.0 10.9 8.3 73 2.3 NNE 9 9 5 5 1020.9 1020.8 0.0
13/06:30pm 13.0 12.3 8.5 74 2.3 SSW 2 7 1 4 1020.9 1020.8 0.0
13/06:00pm 12.9 12.5 8.4 74 2.3 CALM 0 0 0 0 1020.8 1020.7 0.0
13/05:43pm 13.0 12.7 8.5 74 2.3 CALM 0 0 0 0 1020.6 1020.5 0.0
13/05:32pm 13.2 12.9 8.5 73 2.4 CALM 0 0 0 0 1020.4 1020.2 0.0
13/05:30pm 13.2 12.9 8.5 73 2.4 CALM 0 0 0 0 1020.4 1020.2 0.0
13/05:00pm 13.9 13.5 8.1 68 2.9 CALM 0 0 0 0 1020.3 1020.1 0.0
13/04:30pm 15.1 13.4 8.3 64 3.4 SW 7 9 4 5 1019.9 1019.7 0.0
13/04:00pm 16.3 13.9 8.8 61 3.9 SSW 11 11 6 6 1019.8 1019.6 0.0
13/03:30pm 16.3 14.5 9.5 64 3.6 SW 9 13 5 7 1019.5 1019.3 0.0
13/03:00pm 16.8 14.8 10.0 64 3.6 SSE 11 17 6 9 1019.2 1019.0 0.0
13/02:30pm 17.1 15.6 10.7 66 3.4 ESE 9 15 5 8 1019.2 1019.0 0.0
13/02:00pm 16.5 15.1 9.7 64 3.6 SE 7 11 4 6 1019.4 1019.2 0.0
13/01:30pm 16.8 14.6 9.5 62 3.8 SE 11 15 6 8 1019.4 1019.2 0.0
13/01:00pm 15.9 13.7 9.3 65 3.4 SSE 11 15 6 8 1019.7 1019.5 0.0
13/12:30pm 16.3 14.6 9.7 65 3.5 SSE 9 13 5 7 1020.0 1019.8 0.0
13/12:00pm 16.1 13.6 9.8 66 3.3 S 13 15 7 8 1020.7 1020.6 0.0
13/11:30am 16.5 14.9 10.1 66 3.4 E 9 19 5 10 1021.0 1020.9 0.0
13/11:00am 16.3 14.6 9.7 65 3.5 SW 9 15 5 8 1021.4 1021.3 0.0
13/10:30am 17.4 15.1 10.5 64 3.7 NE 13 17 7 9 1021.6 1021.5 0.0
13/10:00am 15.9 14.3 10.2 69 3.0 E 9 13 5 7 1022.0 1021.9 0.0
13/09:30am 15.4 13.6 9.5 68 3.1 SSE 9 13 5 7 1022.4 1022.3 0.0
13/09:00am 15.9 13.4 9.8 67 3.2 SSE 13 15 7 8 1022.4 1022.3 0.0

Other formats

Comma delimited format used in spreadsheet applications
http://www.bom.gov.au/fwo/IDN60801/IDN60801.94996.axf

JavaScript Object Notation format (JSON) in row-major order
http://www.bom.gov.au/fwo/IDN60801/IDN60801.94996.json

Data quality

Most of these data are generated automatically and are frequently updated. Quality checks on data are not normally performed. It is possible for incorrect values to appear. Refer to information at About Latest Weather Observations and please check the disclaimer before using these data.